< < Back
Terminal Aerodrome Forecast


Current Version              Previous Versions:   1  2  3  4  5  6  7  8  9  

Terminal Aerodrome Forecast

826
FTUS42 KTAE 301700
TAFVLD
TAF
KVLD 301736Z 3018/3118 35010G15KT P6SM FEW250
     FM310000 33003KT P6SM SKC
     FM311500 08007KT P6SM SKC=

Latest METAR

945
SAUS70 KWBC 311300 RRM
MTRVLD
METAR KVLD 311253Z 04004KT 10SM CLR 03/M03 A3034 RMK AO2 SLP282
T00281033


USA.gov is the U.S. government's official web portal to all federal, state and local government web resources and services.